createdAt,value
2022-12-26T00:01:02.493Z,41.08
2022-12-26T00:03:30.702Z,40.85
2022-12-26T00:05:58.062Z,40.38
2022-12-26T00:08:25.140Z,40.80
2022-12-26T00:10:52.217Z,40.80
2022-12-26T00:13:38.717Z,40.90
2022-12-26T00:16:08.876Z,39.80
2022-12-26T00:18:36.091Z,39.72
2022-12-26T00:21:03.110Z,39.33
2022-12-26T00:23:32.405Z,38.03
2022-12-26T00:26:10.787Z,38.13
2022-12-26T00:28:38.348Z,39.53
2022-12-26T00:31:06.748Z,38.58
2022-12-26T00:33:35.562Z,44.13
2022-12-26T00:36:07.698Z,40.03
2022-12-26T00:38:39.694Z,36.97
2022-12-26T00:41:08.017Z,39.13
2022-12-26T00:43:34.996Z,38.05
2022-12-26T00:46:02.459Z,39.45
2022-12-26T00:48:29.429Z,41.45
2022-12-26T00:50:56.740Z,40.08
2022-12-26T00:53:24.823Z,38.40
2022-12-26T00:55:52.544Z,41.28
2022-12-26T00:58:20.764Z,40.80
2022-12-26T01:00:48.086Z,39.05
2022-12-26T01:03:16.051Z,39.92
2022-12-26T01:05:45.450Z,38.20
2022-12-26T01:08:19.517Z,39.92
2022-12-26T01:10:49.423Z,39.33
2022-12-26T01:13:16.355Z,42.08
2022-12-26T01:15:54.225Z,39.58
2022-12-26T01:18:21.920Z,38.72
2022-12-26T01:20:49.694Z,37.90
2022-12-26T01:23:17.580Z,38.03
2022-12-26T01:26:17.876Z,40.03
2022-12-26T01:28:31.675Z,40.45
2022-12-26T01:31:05.318Z,39.17
2022-12-26T01:33:33.107Z,38.78
2022-12-26T01:36:00.679Z,38.00
2022-12-26T01:38:30.821Z,38.90
2022-12-26T01:41:16.348Z,39.55
2022-12-26T01:44:02.436Z,39.17
2022-12-26T01:46:38.319Z,37.35
2022-12-26T01:49:16.244Z,37.70
2022-12-26T01:51:53.701Z,36.08
2022-12-26T01:54:37.425Z,40.13
2022-12-26T01:57:21.076Z,39.30
2022-12-26T01:59:49.316Z,36.03
2022-12-26T02:02:18.686Z,37.80
2022-12-26T02:05:07.950Z,34.63
2022-12-26T02:07:37.797Z,36.65
2022-12-26T02:10:13.237Z,38.40
2022-12-26T02:12:41.153Z,38.60
2022-12-26T02:15:12.068Z,37.00
2022-12-26T02:17:40.231Z,39.78
2022-12-26T02:20:10.319Z,36.67
2022-12-26T02:22:58.604Z,37.97
2022-12-26T02:25:44.045Z,34.45
2022-12-26T02:28:33.745Z,36.40
2022-12-26T02:31:10.514Z,37.03
2022-12-26T02:33:52.345Z,37.83
2022-12-26T02:37:12.055Z,35.03
2022-12-26T02:39:54.253Z,35.35
2022-12-26T02:42:44.371Z,35.08
2022-12-26T02:45:40.980Z,33.50
2022-12-26T02:48:15.474Z,34.95
2022-12-26T02:51:20.315Z,35.88
2022-12-26T02:54:43.714Z,33.72
2022-12-26T02:57:36.875Z,33.08
2022-12-26T03:00:27.526Z,36.05
2022-12-26T03:03:19.668Z,36.17
2022-12-26T03:06:11.172Z,35.13
2022-12-26T03:09:04.773Z,34.20
2022-12-26T03:11:55.934Z,34.42
2022-12-26T03:14:34.307Z,34.25
2022-12-26T03:17:20.853Z,36.38
2022-12-26T03:19:59.497Z,33.85
2022-12-26T03:22:45.265Z,31.77
2022-12-26T03:25:38.045Z,33.28
2022-12-26T03:28:05.158Z,33.58
2022-12-26T03:30:50.497Z,33.75
2022-12-26T03:33:48.197Z,33.90
2022-12-26T03:36:23.692Z,32.33
2022-12-26T03:39:12.584Z,32.20
2022-12-26T03:42:25.930Z,34.28
2022-12-26T03:45:21.018Z,31.27
2022-12-26T03:48:32.681Z,33.00
2022-12-26T03:51:28.992Z,31.58
2022-12-26T03:54:26.607Z,31.80
2022-12-26T03:57:18.012Z,31.15
2022-12-26T04:00:27.669Z,30.58
2022-12-26T04:03:36.281Z,32.92
2022-12-26T04:06:24.305Z,30.13
2022-12-26T04:09:19.207Z,29.20
2022-12-26T04:12:04.725Z,27.88
2022-12-26T04:14:53.198Z,29.50
2022-12-26T04:18:00.587Z,27.45
2022-12-26T04:20:54.318Z,28.25
2022-12-26T04:23:43.106Z,28.35
2022-12-26T04:26:51.161Z,26.27
2022-12-26T04:29:36.785Z,27.00
2022-12-26T04:32:50.152Z,26.45
2022-12-26T04:35:48.255Z,28.58
2022-12-26T04:38:40.109Z,26.40
2022-12-26T04:41:28.559Z,26.83
2022-12-26T04:44:11.932Z,25.00
2022-12-26T04:46:47.692Z,24.52
2022-12-26T04:54:30.947Z,24.23
2022-12-26T04:56:57.932Z,25.70
2022-12-26T04:59:25.288Z,25.33
2022-12-26T05:02:11.091Z,25.27
2022-12-26T05:04:56.804Z,24.05
2022-12-26T05:07:51.038Z,24.52
2022-12-26T05:10:26.604Z,23.83
2022-12-26T05:12:54.988Z,23.67
2022-12-26T05:15:22.309Z,22.67
2022-12-26T05:18:07.653Z,24.52
2022-12-26T05:20:46.531Z,23.33
2022-12-26T05:23:45.903Z,22.92
2022-12-26T05:26:37.414Z,22.27
2022-12-26T05:29:05.061Z,21.95
2022-12-26T05:31:36.132Z,21.65
2022-12-26T05:34:07.845Z,21.63
2022-12-26T05:36:58.868Z,21.88
2022-12-26T05:39:25.862Z,22.58
2022-12-26T05:41:52.911Z,21.90
2022-12-26T05:44:19.839Z,21.65
2022-12-26T05:46:46.941Z,21.98
2022-12-26T05:49:14.345Z,20.88
2022-12-26T05:51:41.283Z,21.55
2022-12-26T05:54:08.213Z,21.50
2022-12-26T05:56:35.244Z,21.98
2022-12-26T05:59:02.651Z,21.33
2022-12-26T06:01:30.715Z,20.08
2022-12-26T06:03:59.674Z,21.90
2022-12-26T06:06:27.200Z,20.42
2022-12-26T06:08:55.332Z,21.33
2022-12-26T06:11:23.043Z,21.38
2022-12-26T06:13:50.037Z,18.45
2022-12-26T06:16:18.511Z,21.33
2022-12-26T06:18:45.856Z,20.52
2022-12-26T06:21:15.755Z,21.80
2022-12-26T06:23:42.964Z,20.63
2022-12-26T06:26:12.518Z,19.67
2022-12-26T06:28:40.828Z,21.35
2022-12-26T06:31:14.612Z,21.25
2022-12-26T06:33:42.537Z,20.42
2022-12-26T06:36:15.193Z,21.15
2022-12-26T06:38:43.127Z,20.63
2022-12-26T06:41:12.556Z,20.10
2022-12-26T06:43:39.625Z,19.83
2022-12-26T06:46:08.561Z,20.38
2022-12-26T06:48:39.965Z,20.40
2022-12-26T06:51:10.786Z,19.45
2022-12-26T06:53:37.791Z,19.63
2022-12-26T06:56:18.361Z,19.60
2022-12-26T06:58:45.771Z,19.70
2022-12-26T07:01:18.570Z,19.38
2022-12-26T07:03:51.247Z,20.17
2022-12-26T07:06:24.471Z,19.50
2022-12-26T07:08:55.819Z,20.45
2022-12-26T07:11:28.626Z,20.33
2022-12-26T07:13:56.295Z,18.83
2022-12-26T07:16:23.997Z,19.92
2022-12-26T07:18:55.587Z,19.58
2022-12-26T07:21:26.602Z,19.98
2022-12-26T07:23:54.930Z,18.52
2022-12-26T07:26:23.010Z,19.60
2022-12-26T07:28:57.705Z,18.95
2022-12-26T07:31:25.952Z,18.75
2022-12-26T07:33:55.172Z,19.13
2022-12-26T07:36:26.759Z,18.85
2022-12-26T07:38:53.708Z,18.88
2022-12-26T07:41:39.294Z,17.88
2022-12-26T07:44:06.262Z,19.30
2022-12-26T07:46:33.612Z,19.15
2022-12-26T07:49:01.080Z,17.80
2022-12-26T07:51:28.598Z,18.65
2022-12-26T07:53:55.979Z,18.33
2022-12-26T07:56:23.142Z,19.23
2022-12-26T07:58:51.109Z,18.35
2022-12-26T08:01:19.002Z,19.23
2022-12-26T08:03:49.342Z,18.08
2022-12-26T08:06:17.888Z,18.52
2022-12-26T08:08:50.724Z,18.20
2022-12-26T08:11:22.100Z,18.23
2022-12-26T08:13:49.920Z,18.17
2022-12-26T08:16:17.715Z,17.38
2022-12-26T08:18:44.966Z,18.38
2022-12-26T08:21:13.221Z,16.88
2022-12-26T08:23:40.260Z,17.02
2022-12-26T08:26:09.065Z,16.60
2022-12-26T08:28:36.469Z,16.38
2022-12-26T08:31:08.124Z,17.88
2022-12-26T08:33:35.925Z,20.70
2022-12-26T08:36:07.959Z,16.33
2022-12-26T08:38:35.095Z,17.48
2022-12-26T08:41:02.223Z,15.75
2022-12-26T08:43:52.848Z,16.08
2022-12-26T08:46:17.377Z,15.95
2022-12-26T08:48:45.415Z,15.60
2022-12-26T08:51:21.247Z,16.52
2022-12-26T08:56:19.494Z,15.73
2022-12-26T08:58:47.227Z,16.08
2022-12-26T09:01:20.511Z,16.50
2022-12-26T09:03:48.298Z,17.00
2022-12-26T09:06:15.716Z,17.75
2022-12-26T09:08:43.329Z,15.32
2022-12-26T09:11:17.018Z,16.77
2022-12-26T09:13:44.782Z,15.90
2022-12-26T09:16:17.643Z,15.82
2022-12-26T09:18:45.892Z,16.02
2022-12-26T09:21:15.573Z,17.27
2022-12-26T09:23:43.358Z,16.05
2022-12-26T09:26:14.631Z,16.38
2022-12-26T09:28:41.950Z,17.00
2022-12-26T09:31:13.241Z,18.25
2022-12-26T09:33:40.904Z,17.33
2022-12-26T09:36:17.026Z,16.25
2022-12-26T09:41:11.495Z,16.60
2022-12-26T09:43:49.952Z,18.05
2022-12-26T09:46:34.131Z,18.13
2022-12-26T09:49:12.051Z,18.55
2022-12-26T09:51:42.561Z,18.65
2022-12-26T09:54:18.139Z,17.58
2022-12-26T09:57:02.132Z,18.48
2022-12-26T09:59:34.339Z,18.92
2022-12-26T10:02:01.517Z,18.50
2022-12-26T10:04:30.650Z,18.52
2022-12-26T10:07:31.946Z,19.75
2022-12-26T10:10:35.709Z,18.33
2022-12-26T10:13:36.014Z,18.73
2022-12-26T10:16:13.617Z,18.63
2022-12-26T10:19:01.227Z,17.52
2022-12-26T10:21:42.817Z,17.83
2022-12-26T10:24:25.169Z,19.90
2022-12-26T10:27:01.402Z,18.92
2022-12-26T10:29:35.567Z,18.10
2022-12-26T10:32:04.893Z,18.73
2022-12-26T10:34:42.560Z,19.10
2022-12-26T10:37:40.447Z,18.52
2022-12-26T10:40:12.371Z,19.02
2022-12-26T10:42:45.072Z,19.95
2022-12-26T10:45:21.012Z,19.95
2022-12-26T10:47:50.673Z,19.25
2022-12-26T10:50:40.284Z,18.48
2022-12-26T10:53:31.135Z,18.25
2022-12-26T10:56:00.685Z,19.83
2022-12-26T10:58:34.308Z,17.50
2022-12-26T11:01:36.979Z,17.98
2022-12-26T11:05:09.917Z,19.00
2022-12-26T11:07:12.934Z,18.85
2022-12-26T11:09:48.433Z,18.48
2022-12-26T11:12:22.067Z,18.00
2022-12-26T11:14:49.872Z,19.90
2022-12-26T11:17:28.026Z,18.75
2022-12-26T11:20:16.890Z,20.25
2022-12-26T11:22:45.163Z,19.02
2022-12-26T11:25:25.240Z,20.02
2022-12-26T11:27:57.720Z,18.38
2022-12-26T11:30:27.251Z,21.35
2022-12-26T11:33:21.980Z,20.70
2022-12-26T11:36:26.255Z,19.98
2022-12-26T11:39:03.141Z,19.90
2022-12-26T11:41:32.813Z,18.65
2022-12-26T11:44:09.448Z,19.70
2022-12-26T11:47:09.207Z,19.52
2022-12-26T11:50:03.296Z,19.63
2022-12-26T11:52:55.339Z,18.65
2022-12-26T11:55:33.525Z,19.35
2022-12-26T11:58:09.627Z,19.35
2022-12-26T12:00:40.749Z,18.67
2022-12-26T12:03:33.496Z,19.42
2022-12-26T12:06:25.029Z,19.55
2022-12-26T12:09:05.596Z,18.45
2022-12-26T12:11:54.746Z,19.48
2022-12-26T12:14:52.478Z,21.38
2022-12-26T12:17:59.976Z,18.15
2022-12-26T12:20:43.692Z,18.40
2022-12-26T12:26:17.487Z,20.53
2022-12-26T12:29:11.855Z,20.33
2022-12-26T12:32:07.983Z,22.77
2022-12-26T12:35:07.188Z,21.23
2022-12-26T12:38:12.045Z,20.52
2022-12-26T12:41:03.528Z,21.90
2022-12-26T12:43:52.914Z,21.02
2022-12-26T12:46:33.255Z,22.80
2022-12-26T12:49:24.556Z,22.27
2022-12-26T12:51:57.324Z,24.17
2022-12-26T12:54:49.620Z,23.35
2022-12-26T12:57:37.494Z,23.05
2022-12-26T13:00:19.430Z,22.50
2022-12-26T13:02:46.393Z,23.00
2022-12-26T13:05:29.070Z,23.05
2022-12-26T13:08:04.419Z,23.88
2022-12-26T13:10:35.160Z,25.27
2022-12-26T13:13:36.751Z,24.13
2022-12-26T13:16:14.764Z,22.70
2022-12-26T13:18:51.546Z,24.13
2022-12-26T13:21:20.764Z,26.02
2022-12-26T13:24:14.909Z,26.15
2022-12-26T13:26:46.990Z,25.95
2022-12-26T13:29:22.798Z,28.88
2022-12-26T13:31:49.840Z,28.42
2022-12-26T13:34:19.493Z,27.45
2022-12-26T13:36:49.173Z,30.10
2022-12-26T13:39:25.447Z,28.27
2022-12-26T13:42:20.145Z,30.95
2022-12-26T13:44:53.440Z,29.58
2022-12-26T13:47:35.625Z,31.23
2022-12-26T13:50:39.882Z,30.50
2022-12-26T13:53:32.981Z,30.08
2022-12-26T13:56:05.019Z,30.02
2022-12-26T13:58:49.744Z,29.85
2022-12-26T14:02:07.024Z,30.35
2022-12-26T14:04:40.229Z,32.25
2022-12-26T14:07:18.842Z,30.63
2022-12-26T14:09:53.211Z,32.83
2022-12-26T14:12:38.720Z,31.25
2022-12-26T14:15:28.295Z,31.33
2022-12-26T14:18:23.051Z,33.45
2022-12-26T14:21:12.417Z,30.80
2022-12-26T14:24:04.204Z,30.65
2022-12-26T14:26:42.314Z,31.20
2022-12-26T14:29:38.653Z,30.60
2022-12-26T14:32:34.521Z,32.35
2022-12-26T14:35:26.261Z,31.23
2022-12-26T14:38:02.053Z,33.08
2022-12-26T14:43:23.370Z,31.50
2022-12-26T14:45:52.370Z,32.60
2022-12-26T14:48:19.377Z,31.55
2022-12-26T14:50:51.031Z,32.38
2022-12-26T14:53:29.789Z,32.30
2022-12-26T14:56:10.204Z,30.73
2022-12-26T14:58:45.786Z,32.20
2022-12-26T15:01:15.985Z,32.08
2022-12-26T15:03:45.863Z,30.13
2022-12-26T15:06:42.284Z,33.00
2022-12-26T15:09:46.752Z,31.95
2022-12-26T15:12:32.639Z,30.45
2022-12-26T15:15:30.427Z,31.65
2022-12-26T15:18:09.071Z,30.02
2022-12-26T15:21:13.991Z,30.10
2022-12-26T15:24:14.364Z,31.73
2022-12-26T15:26:49.097Z,30.88
2022-12-26T15:29:25.156Z,31.65
2022-12-26T15:31:58.797Z,31.05
2022-12-26T15:34:28.512Z,32.30
2022-12-26T15:37:05.194Z,30.95
2022-12-26T15:39:57.435Z,30.85
2022-12-26T15:42:42.784Z,32.38
2022-12-26T15:45:30.042Z,32.20
2022-12-26T15:48:34.553Z,29.73
2022-12-26T15:51:10.776Z,29.88
2022-12-26T15:54:10.998Z,33.60
2022-12-26T15:57:16.143Z,31.83
2022-12-26T16:00:02.093Z,31.48
2022-12-26T16:02:41.927Z,33.05
2022-12-26T16:05:26.671Z,32.72
2022-12-26T16:08:04.126Z,34.53
2022-12-26T16:10:33.783Z,33.80
2022-12-26T16:13:12.620Z,32.97
2022-12-26T16:15:48.606Z,33.03
2022-12-26T16:18:18.512Z,31.55
2022-12-26T16:21:05.823Z,31.17
2022-12-26T16:23:37.607Z,35.80
2022-12-26T16:26:04.854Z,33.53
2022-12-26T16:28:40.767Z,34.05
2022-12-26T16:31:09.237Z,33.88
2022-12-26T16:33:42.387Z,32.35
2022-12-26T16:36:15.587Z,33.95
2022-12-26T16:38:44.022Z,34.85
2022-12-26T16:41:20.111Z,33.50
2022-12-26T16:43:47.231Z,33.33
2022-12-26T16:46:18.268Z,33.88
2022-12-26T16:48:48.681Z,33.35
2022-12-26T16:51:40.168Z,34.15
2022-12-26T16:54:22.281Z,32.40
2022-12-26T16:57:08.091Z,34.88
2022-12-26T16:59:44.628Z,35.28
2022-12-26T17:02:30.942Z,33.50
2022-12-26T17:05:05.894Z,35.88
2022-12-26T17:07:45.061Z,33.83
2022-12-26T17:10:38.379Z,33.13
2022-12-26T17:13:08.506Z,34.38
2022-12-26T17:15:49.856Z,34.70
2022-12-26T17:18:52.649Z,33.83
2022-12-26T17:21:32.594Z,35.30
2022-12-26T17:24:08.551Z,34.53
2022-12-26T17:26:39.711Z,35.03
2022-12-26T17:29:26.991Z,33.33
2022-12-26T17:31:54.014Z,37.90
2022-12-26T17:34:26.072Z,35.10
2022-12-26T17:37:18.415Z,35.63
2022-12-26T17:39:41.072Z,36.17
2022-12-26T17:42:08.272Z,35.25
2022-12-26T17:44:35.815Z,35.55
2022-12-26T17:47:14.501Z,35.90
2022-12-26T17:49:41.504Z,35.72
2022-12-26T17:52:11.320Z,35.53
2022-12-26T17:54:38.317Z,34.55
2022-12-26T17:57:05.309Z,35.00
2022-12-26T17:59:32.250Z,36.38
2022-12-26T18:01:59.349Z,35.35
2022-12-26T18:04:26.358Z,35.25
2022-12-26T18:06:53.275Z,34.10
2022-12-26T18:09:26.986Z,32.85
2022-12-26T18:11:54.897Z,37.00
2022-12-26T18:14:22.660Z,35.83
2022-12-26T18:16:51.957Z,37.05
2022-12-26T18:19:20.037Z,38.45
2022-12-26T18:21:47.842Z,36.63
2022-12-26T18:24:14.894Z,36.58
2022-12-26T18:26:42.029Z,36.95
2022-12-26T18:29:10.341Z,37.67
2022-12-26T18:31:37.702Z,37.15
2022-12-26T18:34:04.883Z,35.42
2022-12-26T18:36:35.154Z,37.55
2022-12-26T18:39:02.725Z,36.05
2022-12-26T18:41:29.678Z,37.22
2022-12-26T18:43:58.191Z,35.17
2022-12-26T18:46:27.252Z,36.65
2022-12-26T18:48:56.639Z,36.83
2022-12-26T18:51:25.608Z,37.30
2022-12-26T18:53:52.743Z,37.83
2022-12-26T18:56:22.322Z,35.90
2022-12-26T18:58:57.591Z,37.03
2022-12-26T19:03:53.803Z,37.25
2022-12-26T19:06:24.798Z,36.53
2022-12-26T19:08:51.818Z,37.90
2022-12-26T19:11:19.068Z,37.35
2022-12-26T19:13:46.085Z,37.42
2022-12-26T19:16:13.388Z,36.88
2022-12-26T19:18:40.495Z,35.72
2022-12-26T19:21:12.482Z,38.53
2022-12-26T19:23:39.621Z,36.53
2022-12-26T19:26:15.848Z,37.80
2022-12-26T19:28:42.809Z,35.92
2022-12-26T19:31:12.387Z,38.95
2022-12-26T19:33:39.665Z,37.05
2022-12-26T19:36:07.713Z,38.35
2022-12-26T19:38:35.139Z,35.28
2022-12-26T19:41:08.964Z,38.20
2022-12-26T19:43:36.234Z,36.47
2022-12-26T19:46:09.530Z,37.55
2022-12-26T19:48:37.567Z,40.53
2022-12-26T19:51:08.621Z,40.28
2022-12-26T19:53:36.461Z,40.42
2022-12-26T19:56:10.850Z,41.10
2022-12-26T19:58:39.186Z,39.55
2022-12-26T20:01:15.348Z,38.55
2022-12-26T20:03:44.713Z,38.90
2022-12-26T20:06:21.565Z,39.42
2022-12-26T20:08:50.367Z,40.65
2022-12-26T20:11:23.536Z,39.88
2022-12-26T20:13:51.355Z,39.63
2022-12-26T20:17:02.675Z,39.67
2022-12-26T20:19:09.143Z,39.28
2022-12-26T20:21:38.117Z,39.78
2022-12-26T20:24:05.545Z,40.53
2022-12-26T20:26:32.555Z,41.30
2022-12-26T20:29:01.820Z,41.40
2022-12-26T20:31:30.401Z,38.90
2022-12-26T20:33:57.800Z,41.72
2022-12-26T20:36:32.235Z,40.45
2022-12-26T20:39:04.959Z,40.50
2022-12-26T20:41:32.238Z,40.30
2022-12-26T20:43:59.543Z,42.22
2022-12-26T20:46:29.079Z,40.03
2022-12-26T20:48:56.239Z,40.42
2022-12-26T20:51:29.035Z,41.72
2022-12-26T20:54:01.027Z,49.97
2022-12-26T20:56:29.675Z,44.33
2022-12-26T20:58:59.233Z,42.33
2022-12-26T21:01:27.047Z,42.60
2022-12-26T21:03:55.652Z,41.47
2022-12-26T21:06:24.021Z,41.45
2022-12-26T21:08:52.955Z,40.28
2022-12-26T21:11:34.564Z,42.85
2022-12-26T21:14:04.352Z,44.85
2022-12-26T21:16:37.699Z,43.33
2022-12-26T21:19:10.886Z,41.42
2022-12-26T21:21:44.084Z,42.30
2022-12-26T21:24:20.244Z,42.80
2022-12-26T21:26:48.005Z,42.67
2022-12-26T21:29:21.374Z,40.92
2022-12-26T21:31:48.840Z,41.55
2022-12-26T21:34:18.377Z,41.53
2022-12-26T21:37:04.575Z,41.53
2022-12-26T21:41:59.933Z,42.17
2022-12-26T21:44:26.999Z,41.53
2022-12-26T21:46:54.097Z,42.38
2022-12-26T21:49:21.135Z,41.70
2022-12-26T21:51:48.207Z,43.17
2022-12-26T21:54:34.333Z,42.33
2022-12-26T21:57:01.756Z,42.13
2022-12-26T21:59:47.466Z,44.17
2022-12-26T22:02:34.413Z,45.90
2022-12-26T22:05:01.767Z,44.03
2022-12-26T22:07:29.293Z,43.83
2022-12-26T22:09:56.222Z,43.13
2022-12-26T22:12:42.009Z,45.80
2022-12-26T22:15:27.791Z,45.35
2022-12-26T22:17:54.843Z,44.00
2022-12-26T22:20:21.803Z,43.90
2022-12-26T22:22:49.339Z,43.72
2022-12-26T22:25:16.588Z,43.10
2022-12-26T22:27:44.349Z,43.13
2022-12-26T22:30:12.501Z,42.38
2022-12-26T22:32:39.631Z,42.90
2022-12-26T22:35:07.215Z,42.67
2022-12-26T22:37:34.203Z,43.67
2022-12-26T22:40:01.350Z,44.35
2022-12-26T22:42:31.895Z,42.03
2022-12-26T22:44:59.056Z,43.28
2022-12-26T22:47:26.712Z,43.80
2022-12-26T22:49:53.592Z,43.92
2022-12-26T22:52:20.545Z,46.60
2022-12-26T22:54:47.585Z,45.20
2022-12-26T22:57:15.112Z,46.75
2022-12-26T23:00:07.828Z,45.90
2022-12-26T23:02:29.249Z,43.47
2022-12-26T23:04:56.671Z,41.05
2022-12-26T23:07:23.846Z,42.08
2022-12-26T23:09:51.214Z,43.60
2022-12-26T23:12:36.990Z,40.13
2022-12-26T23:15:05.461Z,43.35
2022-12-26T23:17:54.182Z,43.15
2022-12-26T23:20:42.763Z,39.90
2022-12-26T23:23:09.983Z,41.70
2022-12-26T23:25:38.901Z,41.22
2022-12-26T23:28:24.284Z,39.53
2022-12-26T23:30:51.567Z,41.55
2022-12-26T23:33:18.470Z,40.17
2022-12-26T23:35:45.454Z,40.17
2022-12-26T23:38:12.419Z,39.60
2022-12-26T23:40:39.547Z,40.58
2022-12-26T23:43:06.442Z,37.80
2022-12-26T23:45:33.504Z,39.53
2022-12-26T23:48:00.364Z,41.15
2022-12-26T23:50:27.379Z,40.28
2022-12-26T23:52:54.507Z,38.50
2022-12-26T23:55:21.428Z,39.75
2022-12-26T23:57:48.518Z,40.85
